createdAt,value
2023-01-08T00:01:15.260Z,6.07
2023-01-08T00:03:41.902Z,5.63
2023-01-08T00:06:10.683Z,5.57
2023-01-08T00:08:37.320Z,5.90
2023-01-08T00:11:03.772Z,8.33
2023-01-08T00:13:30.313Z,9.10
2023-01-08T00:15:56.742Z,9.13
2023-01-08T00:18:24.719Z,9.03
2023-01-08T00:20:51.168Z,7.40
2023-01-08T00:23:18.584Z,10.47
2023-01-08T00:25:45.422Z,6.97
2023-01-08T00:28:12.024Z,7.27
2023-01-08T00:30:38.513Z,6.03
2023-01-08T00:33:05.058Z,8.23
2023-01-08T00:35:31.585Z,5.80
2023-01-08T00:37:58.056Z,6.50
2023-01-08T00:40:24.450Z,9.43
2023-01-08T00:42:50.868Z,7.00
2023-01-08T00:45:17.365Z,5.53
2023-01-08T00:47:43.899Z,6.73
2023-01-08T00:50:10.827Z,7.67
2023-01-08T00:52:37.355Z,6.03
2023-01-08T00:55:03.929Z,5.63
2023-01-08T00:57:37.862Z,6.23
2023-01-08T01:00:05.691Z,5.03
2023-01-08T01:02:32.345Z,4.80
2023-01-08T01:04:58.843Z,5.90
2023-01-08T01:07:25.627Z,6.00
2023-01-08T01:09:52.050Z,6.03
2023-01-08T01:12:18.468Z,5.53
2023-01-08T01:14:44.983Z,6.80
2023-01-08T01:17:12.136Z,6.87
2023-01-08T01:19:38.758Z,6.50
2023-01-08T01:22:05.456Z,6.03
2023-01-08T01:24:31.836Z,8.50
2023-01-08T01:26:58.207Z,8.93
2023-01-08T01:29:25.154Z,8.10
2023-01-08T01:31:51.547Z,9.87
2023-01-08T01:34:18.049Z,5.67
2023-01-08T01:36:44.609Z,5.97
2023-01-08T01:39:11.015Z,8.27
2023-01-08T01:41:38.903Z,6.23
2023-01-08T01:44:23.979Z,6.17
2023-01-08T01:46:50.497Z,5.67
2023-01-08T01:49:21.111Z,6.30
2023-01-08T01:51:49.582Z,4.68
2023-01-08T01:54:16.943Z,5.43
2023-01-08T01:56:43.797Z,5.40
2023-01-08T01:59:10.807Z,6.67
2023-01-08T02:01:37.935Z,5.83
2023-01-08T02:04:05.797Z,7.30
2023-01-08T02:06:42.326Z,5.20
2023-01-08T02:09:15.609Z,6.13
2023-01-08T02:12:20.694Z,5.20
2023-01-08T02:15:11.423Z,4.40
2023-01-08T02:17:43.727Z,4.40
2023-01-08T02:20:12.177Z,5.83
2023-01-08T02:22:41.718Z,5.00
2023-01-08T02:25:08.179Z,6.07
2023-01-08T02:27:35.896Z,4.43
2023-01-08T02:30:03.282Z,5.07
2023-01-08T02:32:33.618Z,4.10
2023-01-08T02:35:00.199Z,4.07
2023-01-08T02:37:26.752Z,5.67
2023-01-08T02:40:11.358Z,6.13
2023-01-08T02:42:40.385Z,4.33
2023-01-08T02:45:22.058Z,4.10
2023-01-08T02:48:00.539Z,4.47
2023-01-08T02:50:35.244Z,6.17
2023-01-08T02:53:01.691Z,6.53
2023-01-08T02:55:28.640Z,4.37
2023-01-08T02:57:55.282Z,6.50
2023-01-08T03:00:22.195Z,4.80
2023-01-08T03:02:51.233Z,4.43
2023-01-08T03:05:25.079Z,4.17
2023-01-08T03:07:51.628Z,4.63
2023-01-08T03:10:19.501Z,7.03
2023-01-08T03:12:54.297Z,4.77
2023-01-08T03:15:26.612Z,6.77
2023-01-08T03:17:55.778Z,5.53
2023-01-08T03:20:24.364Z,7.00
2023-01-08T03:22:52.865Z,4.43
2023-01-08T03:25:21.075Z,5.90
2023-01-08T03:27:49.197Z,4.30
2023-01-08T03:30:16.978Z,6.83
2023-01-08T03:32:44.283Z,5.27
2023-01-08T03:35:11.937Z,6.20
2023-01-08T03:37:40.309Z,5.07
2023-01-08T03:40:12.099Z,5.40
2023-01-08T03:42:38.693Z,5.77
2023-01-08T03:45:06.162Z,4.77
2023-01-08T03:47:33.209Z,6.10
2023-01-08T03:50:01.390Z,4.57
2023-01-08T03:52:29.062Z,5.23
2023-01-08T03:54:55.504Z,3.97
2023-01-08T03:57:22.214Z,6.47
2023-01-08T03:59:48.791Z,3.60
2023-01-08T04:02:15.673Z,4.10
2023-01-08T04:04:42.445Z,4.03
2023-01-08T04:07:10.607Z,4.53
2023-01-08T04:09:37.226Z,5.07
2023-01-08T04:12:04.665Z,4.73
2023-01-08T04:14:31.123Z,4.37
2023-01-08T04:16:57.626Z,6.57
2023-01-08T04:19:24.070Z,4.30
2023-01-08T04:21:53.515Z,4.57
2023-01-08T04:24:20.067Z,4.27
2023-01-08T04:26:46.615Z,5.13
2023-01-08T04:29:13.260Z,5.30
2023-01-08T04:31:40.069Z,4.87
2023-01-08T04:34:06.504Z,4.97
2023-01-08T04:36:32.982Z,5.67
2023-01-08T04:38:59.369Z,5.10
2023-01-08T04:41:25.771Z,5.67
2023-01-08T04:43:52.206Z,5.90
2023-01-08T04:46:18.729Z,9.67
2023-01-08T04:48:45.209Z,5.03
2023-01-08T04:51:11.631Z,5.33
2023-01-08T04:53:40.480Z,5.80
2023-01-08T04:56:08.102Z,5.83
2023-01-08T04:58:35.466Z,5.83
2023-01-08T05:01:02.036Z,5.17
2023-01-08T05:03:28.568Z,6.10
2023-01-08T05:05:55.005Z,5.47
2023-01-08T05:08:21.418Z,7.00
2023-01-08T05:10:47.933Z,6.43
2023-01-08T05:13:14.373Z,5.50
2023-01-08T05:15:40.904Z,5.67
2023-01-08T05:18:07.368Z,6.30
2023-01-08T05:20:33.813Z,4.93
2023-01-08T05:23:00.302Z,5.70
2023-01-08T05:25:26.905Z,5.80
2023-01-08T05:27:53.396Z,6.10
2023-01-08T05:30:19.896Z,6.47
2023-01-08T05:32:46.331Z,5.10
2023-01-08T05:35:12.814Z,4.87
2023-01-08T05:37:39.339Z,4.30
2023-01-08T05:40:05.909Z,4.70
2023-01-08T05:42:33.827Z,4.90
2023-01-08T05:45:00.276Z,3.63
2023-01-08T05:47:29.646Z,5.07
2023-01-08T05:49:56.293Z,5.30
2023-01-08T05:52:22.703Z,6.20
2023-01-08T05:54:49.095Z,6.57
2023-01-08T05:57:15.619Z,5.93
2023-01-08T05:59:42.142Z,7.37
2023-01-08T06:02:09.094Z,5.37
2023-01-08T06:04:35.657Z,5.47
2023-01-08T06:07:02.204Z,4.77
2023-01-08T06:09:28.663Z,4.93
2023-01-08T06:11:57.979Z,5.00
2023-01-08T06:14:24.603Z,4.33
2023-01-08T06:16:51.014Z,4.70
2023-01-08T06:19:19.020Z,4.30
2023-01-08T06:21:45.592Z,4.53
2023-01-08T06:24:12.122Z,6.27
2023-01-08T06:26:38.725Z,4.30
2023-01-08T06:29:05.224Z,4.20
2023-01-08T06:31:31.766Z,4.10
2023-01-08T06:33:58.171Z,4.40
2023-01-08T06:36:24.623Z,4.67
2023-01-08T06:38:51.039Z,6.20
2023-01-08T06:41:17.468Z,3.83
2023-01-08T06:43:43.939Z,4.47
2023-01-08T06:46:10.556Z,4.20
2023-01-08T06:48:37.140Z,5.97
2023-01-08T06:51:03.947Z,6.87
2023-01-08T06:53:30.672Z,4.10
2023-01-08T06:55:58.599Z,8.27
2023-01-08T06:58:25.731Z,15.03
2023-01-08T07:00:52.181Z,5.10
2023-01-08T07:03:18.930Z,5.63
2023-01-08T07:05:45.429Z,4.30
2023-01-08T07:08:15.531Z,7.83
2023-01-08T07:10:42.541Z,4.93
2023-01-08T07:13:09.304Z,5.10
2023-01-08T07:15:39.675Z,4.90
2023-01-08T07:18:07.011Z,6.88
2023-01-08T07:20:34.035Z,4.17
2023-01-08T07:23:04.249Z,4.47
2023-01-08T07:25:30.874Z,5.17
2023-01-08T07:27:57.631Z,5.50
2023-01-08T07:30:29.926Z,6.10
2023-01-08T07:33:00.693Z,7.53
2023-01-08T07:35:27.501Z,7.73
2023-01-08T07:37:53.976Z,6.53
2023-01-08T07:40:20.552Z,10.03
2023-01-08T07:42:46.977Z,6.57
2023-01-08T07:45:13.378Z,4.13
2023-01-08T07:47:39.828Z,6.10
2023-01-08T07:50:06.491Z,4.53
2023-01-08T07:52:32.955Z,6.30
2023-01-08T07:54:59.433Z,5.77
2023-01-08T07:57:25.912Z,5.80
2023-01-08T07:59:52.342Z,5.03
2023-01-08T08:02:18.995Z,5.53
2023-01-08T08:04:45.558Z,7.40
2023-01-08T08:07:12.194Z,9.20
2023-01-08T08:09:38.659Z,9.43
2023-01-08T08:12:05.211Z,8.37
2023-01-08T08:14:31.668Z,7.70
2023-01-08T08:16:58.067Z,6.20
2023-01-08T08:19:24.480Z,5.70
2023-01-08T08:21:50.929Z,8.00
2023-01-08T08:24:17.465Z,10.47
2023-01-08T08:26:43.959Z,8.37
2023-01-08T08:29:10.744Z,5.80
2023-01-08T08:31:37.217Z,5.97
2023-01-08T08:34:03.822Z,6.47
2023-01-08T08:36:30.712Z,7.23
2023-01-08T08:38:57.172Z,7.00
2023-01-08T08:41:23.609Z,7.25
2023-01-08T08:43:51.380Z,7.70
2023-01-08T08:46:18.372Z,6.90
2023-01-08T08:48:46.049Z,6.57
2023-01-08T08:51:12.945Z,5.53
2023-01-08T08:53:39.459Z,6.23
2023-01-08T08:56:05.983Z,5.45
2023-01-08T08:58:32.471Z,13.00
2023-01-08T09:01:04.907Z,12.93
2023-01-08T09:03:31.569Z,12.67
2023-01-08T09:05:59.858Z,16.07
2023-01-08T09:08:26.483Z,9.10
2023-01-08T09:10:52.903Z,12.03
2023-01-08T09:13:19.309Z,9.70
2023-01-08T09:15:45.885Z,10.27
2023-01-08T09:18:13.109Z,8.23
2023-01-08T09:20:40.578Z,6.60
2023-01-08T09:23:07.139Z,7.30
2023-01-08T09:25:33.688Z,5.63
2023-01-08T09:28:04.053Z,7.00
2023-01-08T09:30:30.587Z,8.77
2023-01-08T09:33:02.545Z,8.40
2023-01-08T09:35:29.676Z,13.38
2023-01-08T09:37:57.479Z,8.57
2023-01-08T09:40:26.192Z,8.23
2023-01-08T09:42:57.568Z,9.57
2023-01-08T09:47:50.618Z,8.65
2023-01-08T09:50:17.059Z,7.47
2023-01-08T09:52:43.935Z,10.15
2023-01-08T09:55:14.302Z,9.45
2023-01-08T09:57:40.740Z,8.10
2023-01-08T10:00:13.291Z,7.80
2023-01-08T10:02:40.403Z,8.57
2023-01-08T10:05:12.312Z,7.53
2023-01-08T10:07:39.196Z,6.78
2023-01-08T10:10:05.998Z,6.20
2023-01-08T10:12:33.535Z,7.85
2023-01-08T10:15:01.745Z,6.47
2023-01-08T10:17:28.232Z,6.55
2023-01-08T10:19:54.856Z,7.95
2023-01-08T10:22:23.603Z,7.20
2023-01-08T10:24:50.625Z,7.07
2023-01-08T10:27:18.595Z,7.05
2023-01-08T10:29:45.089Z,6.53
2023-01-08T10:32:28.437Z,5.17
2023-01-08T10:34:58.540Z,5.82
2023-01-08T10:37:44.195Z,6.20
2023-01-08T10:40:25.449Z,6.03
2023-01-08T10:42:52.733Z,6.00
2023-01-08T10:45:21.350Z,7.80
2023-01-08T10:47:49.526Z,6.95
2023-01-08T10:50:20.313Z,7.53
2023-01-08T10:52:54.604Z,7.32
2023-01-08T10:55:24.462Z,7.88
2023-01-08T10:57:57.224Z,6.00
2023-01-08T11:00:34.223Z,6.10
2023-01-08T11:03:08.008Z,5.78
2023-01-08T11:05:36.433Z,6.60
2023-01-08T11:08:05.953Z,5.38
2023-01-08T11:10:33.848Z,5.18
2023-01-08T11:13:01.810Z,7.18
2023-01-08T11:15:33.421Z,7.13
2023-01-08T11:18:07.801Z,6.05
2023-01-08T11:20:35.045Z,6.30
2023-01-08T11:23:22.247Z,5.93
2023-01-08T11:25:55.429Z,6.95
2023-01-08T11:28:27.012Z,6.75
2023-01-08T11:31:11.756Z,6.18
2023-01-08T11:33:39.391Z,6.10
2023-01-08T11:36:15.932Z,5.90
2023-01-08T11:38:42.420Z,6.05
2023-01-08T11:41:14.715Z,5.57
2023-01-08T11:43:53.542Z,7.63
2023-01-08T11:46:38.796Z,6.18
2023-01-08T11:49:25.643Z,6.70
2023-01-08T11:52:11.069Z,6.22
2023-01-08T11:54:56.077Z,5.97
2023-01-08T11:57:28.696Z,6.30
2023-01-08T12:00:14.511Z,5.57
2023-01-08T12:02:57.999Z,5.55
2023-01-08T12:05:24.509Z,5.07
2023-01-08T12:08:00.464Z,5.85
2023-01-08T12:10:33.081Z,5.00
2023-01-08T12:13:11.499Z,4.97
2023-01-08T12:15:47.580Z,5.35
2023-01-08T12:18:14.090Z,5.60
2023-01-08T12:20:46.284Z,5.57
2023-01-08T12:23:21.762Z,6.03
2023-01-08T12:26:06.983Z,5.30
2023-01-08T12:28:43.786Z,4.32
2023-01-08T12:31:30.416Z,6.05
2023-01-08T12:33:59.041Z,5.07
2023-01-08T12:36:33.259Z,5.65
2023-01-08T12:39:10.206Z,5.20
2023-01-08T12:41:39.334Z,5.43
2023-01-08T12:44:10.104Z,5.68
2023-01-08T12:46:38.124Z,5.57
2023-01-08T12:49:05.736Z,6.05
2023-01-08T12:51:38.906Z,5.97
2023-01-08T12:54:05.335Z,8.82
2023-01-08T12:56:33.451Z,5.45
2023-01-08T12:59:10.732Z,5.07
2023-01-08T13:01:53.069Z,5.88
2023-01-08T13:04:19.897Z,7.82
2023-01-08T13:06:50.583Z,6.88
2023-01-08T13:09:25.528Z,6.28
2023-01-08T13:11:53.645Z,7.07
2023-01-08T13:14:20.399Z,8.38
2023-01-08T13:16:47.258Z,12.27
2023-01-08T13:19:32.393Z,11.43
2023-01-08T13:21:59.818Z,10.82
2023-01-08T13:24:30.925Z,8.82
2023-01-08T13:26:57.561Z,12.18
2023-01-08T13:29:26.774Z,8.75
2023-01-08T13:31:53.486Z,7.43
2023-01-08T13:34:35.578Z,7.03
2023-01-08T13:37:02.112Z,6.18
2023-01-08T13:39:46.830Z,5.75
2023-01-08T13:42:21.986Z,7.93
2023-01-08T13:45:07.499Z,5.80
2023-01-08T13:47:35.658Z,7.85
2023-01-08T13:50:13.608Z,7.47
2023-01-08T13:52:40.015Z,7.97
2023-01-08T13:55:13.002Z,8.68
2023-01-08T13:57:43.611Z,8.70
2023-01-08T14:00:17.293Z,5.60
2023-01-08T14:02:49.412Z,8.15
2023-01-08T14:05:29.834Z,9.18
2023-01-08T14:07:56.796Z,7.70
2023-01-08T14:10:24.024Z,6.57
2023-01-08T14:12:51.544Z,6.45
2023-01-08T14:15:25.945Z,5.97
2023-01-08T14:17:53.113Z,6.55
2023-01-08T14:20:27.586Z,6.10
2023-01-08T14:22:54.050Z,6.50
2023-01-08T14:25:20.516Z,6.07
2023-01-08T14:28:16.086Z,8.05
2023-01-08T14:30:47.915Z,8.18
2023-01-08T14:33:15.182Z,7.00
2023-01-08T14:35:41.779Z,6.90
2023-01-08T14:38:13.160Z,5.68
2023-01-08T14:40:41.460Z,7.35
2023-01-08T14:43:12.561Z,6.78
2023-01-08T14:45:40.973Z,7.47
2023-01-08T14:48:11.773Z,6.15
2023-01-08T14:50:45.428Z,7.07
2023-01-08T14:53:17.718Z,8.07
2023-01-08T14:55:45.940Z,7.15
2023-01-08T14:58:14.422Z,6.10
2023-01-08T15:00:41.050Z,6.65
2023-01-08T15:03:24.044Z,7.25
2023-01-08T15:05:54.369Z,6.35
2023-01-08T15:08:46.897Z,7.57
2023-01-08T15:11:19.369Z,6.00
2023-01-08T15:13:46.765Z,6.47
2023-01-08T15:16:28.979Z,4.90
2023-01-08T15:19:04.055Z,5.75
2023-01-08T15:21:31.005Z,5.03
2023-01-08T15:23:58.308Z,5.13
2023-01-08T15:26:24.734Z,5.43
2023-01-08T15:28:56.051Z,7.90
2023-01-08T15:33:48.914Z,10.05
2023-01-08T15:36:15.395Z,8.25
2023-01-08T15:38:43.064Z,9.93
2023-01-08T15:41:10.209Z,8.07
2023-01-08T15:43:36.737Z,8.43
2023-01-08T15:46:05.087Z,11.60
2023-01-08T15:48:31.510Z,8.60
2023-01-08T15:50:58.180Z,9.65
2023-01-08T15:53:24.783Z,11.90
2023-01-08T15:55:51.686Z,7.78
2023-01-08T15:58:18.195Z,10.45
2023-01-08T16:00:45.807Z,12.68
2023-01-08T16:03:13.451Z,12.70
2023-01-08T16:05:40.073Z,14.43
2023-01-08T16:08:06.723Z,11.55
2023-01-08T16:10:33.577Z,15.60
2023-01-08T16:13:01.357Z,14.23
2023-01-08T16:15:28.783Z,11.98
2023-01-08T16:17:55.722Z,12.23
2023-01-08T16:20:22.189Z,13.55
2023-01-08T16:22:48.606Z,13.60
2023-01-08T16:25:15.089Z,12.63
2023-01-08T16:27:43.060Z,11.32
2023-01-08T16:30:15.407Z,11.02
2023-01-08T16:32:42.274Z,9.63
2023-01-08T16:35:09.426Z,9.90
2023-01-08T16:37:35.933Z,15.32
2023-01-08T16:40:02.432Z,15.38
2023-01-08T16:42:29.071Z,13.25
2023-01-08T16:44:55.614Z,16.15
2023-01-08T16:47:22.078Z,10.52
2023-01-08T16:49:50.379Z,8.82
2023-01-08T16:52:17.547Z,7.63
2023-01-08T16:54:44.480Z,11.18
2023-01-08T16:57:10.906Z,8.98
2023-01-08T16:59:37.425Z,11.73
2023-01-08T17:02:03.832Z,9.68
2023-01-08T17:04:30.381Z,9.20
2023-01-08T17:06:57.062Z,8.10
2023-01-08T17:09:23.865Z,10.27
2023-01-08T17:11:50.430Z,10.65
2023-01-08T17:14:16.967Z,8.02
2023-01-08T17:16:45.282Z,7.88
2023-01-08T17:19:12.615Z,8.45
2023-01-08T17:21:39.689Z,8.68
2023-01-08T17:24:06.766Z,9.90
2023-01-08T17:26:33.243Z,9.43
2023-01-08T17:28:59.715Z,9.77
2023-01-08T17:31:26.212Z,10.25
2023-01-08T17:33:54.090Z,11.93
2023-01-08T17:36:22.088Z,10.82
2023-01-08T17:38:51.475Z,11.48
2023-01-08T17:41:53.715Z,11.10
2023-01-08T17:44:20.278Z,11.73
2023-01-08T17:46:46.886Z,11.27
2023-01-08T17:49:14.225Z,10.95
2023-01-08T17:51:41.555Z,11.15
2023-01-08T17:54:15.397Z,9.35
2023-01-08T17:56:42.176Z,11.30
2023-01-08T17:59:11.169Z,10.57
2023-01-08T18:01:37.592Z,9.55
2023-01-08T18:04:04.158Z,9.85
2023-01-08T18:06:30.582Z,10.52
2023-01-08T18:08:57.115Z,10.73
2023-01-08T18:11:25.269Z,9.18
2023-01-08T18:13:55.317Z,9.77
2023-01-08T18:16:21.967Z,9.95
2023-01-08T18:18:48.602Z,5.30
2023-01-08T18:21:15.034Z,7.45
2023-01-08T18:23:41.543Z,9.60
2023-01-08T18:26:09.883Z,9.18
2023-01-08T18:28:37.303Z,8.05
2023-01-08T18:31:07.572Z,8.35
2023-01-08T18:33:34.501Z,7.35
2023-01-08T18:36:03.123Z,7.05
2023-01-08T18:38:29.738Z,8.02
2023-01-08T18:40:57.387Z,7.03
2023-01-08T18:43:24.375Z,9.15
2023-01-08T18:45:51.190Z,10.38
2023-01-08T18:48:17.636Z,12.27
2023-01-08T18:50:44.065Z,10.57
2023-01-08T18:53:10.621Z,9.75
2023-01-08T18:55:37.166Z,10.07
2023-01-08T18:58:04.622Z,9.55
2023-01-08T19:00:31.314Z,10.32
2023-01-08T19:02:57.797Z,11.38
2023-01-08T19:05:24.404Z,11.50
2023-01-08T19:07:50.926Z,13.70
2023-01-08T19:10:17.569Z,13.77
2023-01-08T19:12:44.779Z,10.18
2023-01-08T19:15:11.669Z,11.57
2023-01-08T19:17:38.200Z,11.23
2023-01-08T19:20:05.145Z,12.98
2023-01-08T19:22:32.638Z,10.55
2023-01-08T19:24:59.374Z,10.60
2023-01-08T19:27:25.754Z,12.75
2023-01-08T19:29:52.217Z,10.77
2023-01-08T19:32:18.622Z,10.27
2023-01-08T19:34:45.214Z,10.93
2023-01-08T19:37:13.765Z,10.38
2023-01-08T19:39:40.302Z,13.02
2023-01-08T19:42:25.386Z,11.35
2023-01-08T19:44:51.866Z,12.55
2023-01-08T19:47:18.349Z,10.98
2023-01-08T19:49:48.911Z,10.32
2023-01-08T19:52:16.160Z,10.88
2023-01-08T19:54:42.767Z,13.73
2023-01-08T19:57:09.220Z,11.88
2023-01-08T19:59:36.007Z,9.25
2023-01-08T20:02:02.639Z,8.23
2023-01-08T20:04:34.334Z,8.23
2023-01-08T20:07:00.968Z,8.52
2023-01-08T20:09:27.465Z,8.18
2023-01-08T20:11:54.010Z,9.30
2023-01-08T20:14:21.243Z,7.35
2023-01-08T20:16:47.799Z,8.43
2023-01-08T20:19:14.292Z,9.27
2023-01-08T20:21:40.952Z,7.25
2023-01-08T20:24:11.877Z,10.00
2023-01-08T20:26:38.496Z,8.27
2023-01-08T20:29:05.282Z,10.18
2023-01-08T20:31:34.107Z,12.45
2023-01-08T20:34:01.800Z,11.88
2023-01-08T20:36:29.523Z,9.65
2023-01-08T20:38:57.427Z,8.45
2023-01-08T20:41:24.565Z,9.05
2023-01-08T20:43:51.020Z,12.73
2023-01-08T20:46:17.504Z,10.57
2023-01-08T20:48:47.815Z,8.95
2023-01-08T20:51:15.307Z,10.57
2023-01-08T20:53:41.726Z,8.45
2023-01-08T20:56:09.874Z,9.98
2023-01-08T20:58:37.190Z,7.28
2023-01-08T21:01:11.329Z,8.57
2023-01-08T21:03:38.817Z,9.02
2023-01-08T21:06:06.819Z,38.45
2023-01-08T21:08:33.355Z,9.80
2023-01-08T21:11:00.388Z,10.98
2023-01-08T21:13:27.442Z,3.83
2023-01-08T21:15:56.115Z,0.60
2023-01-08T21:18:24.357Z,4.57
2023-01-08T21:20:50.770Z,4.53
2023-01-08T21:23:17.222Z,5.22
2023-01-08T21:25:43.709Z,4.63
2023-01-08T21:28:10.220Z,4.30
2023-01-08T21:30:36.627Z,4.45
2023-01-08T21:33:03.121Z,4.25
2023-01-08T21:35:30.060Z,2.25
2023-01-08T21:37:56.522Z,2.47
2023-01-08T21:40:23.030Z,2.33
2023-01-08T21:43:08.425Z,4.32
2023-01-08T21:45:34.887Z,2.60
2023-01-08T21:48:01.340Z,2.95
2023-01-08T21:50:27.894Z,3.75
2023-01-08T21:53:13.474Z,3.40
2023-01-08T21:55:42.043Z,3.60
2023-01-08T21:58:08.627Z,3.85
2023-01-08T22:00:35.166Z,4.75
2023-01-08T22:03:01.696Z,3.97
2023-01-08T22:05:28.307Z,2.60
2023-01-08T22:07:54.695Z,2.85
2023-01-08T22:10:21.181Z,2.20
2023-01-08T22:12:47.577Z,3.65
2023-01-08T22:15:14.317Z,3.58
2023-01-08T22:17:40.834Z,2.70
2023-01-08T22:20:09.746Z,2.35
2023-01-08T22:22:36.255Z,3.38
2023-01-08T22:25:02.891Z,3.35
2023-01-08T22:27:29.341Z,3.28
2023-01-08T22:29:55.806Z,2.08
2023-01-08T22:32:22.314Z,2.42
2023-01-08T22:34:50.434Z,2.63
2023-01-08T22:37:21.522Z,0.90
2023-01-08T22:39:48.674Z,1.30
2023-01-08T22:42:15.820Z,2.10
2023-01-08T22:44:42.337Z,5.03
2023-01-08T22:47:10.124Z,4.85
2023-01-08T22:49:37.298Z,5.67
2023-01-08T22:52:03.947Z,5.35
2023-01-08T22:54:30.447Z,4.28
2023-01-08T22:56:57.063Z,4.15
2023-01-08T22:59:23.741Z,5.25
2023-01-08T23:01:50.209Z,4.20
2023-01-08T23:04:16.697Z,9.20
2023-01-08T23:06:43.245Z,7.38
2023-01-08T23:09:09.739Z,5.95
2023-01-08T23:11:36.266Z,5.63
2023-01-08T23:14:02.709Z,4.25
2023-01-08T23:16:29.291Z,4.18
2023-01-08T23:18:56.056Z,4.53
2023-01-08T23:21:23.881Z,4.22
2023-01-08T23:23:50.811Z,4.30
2023-01-08T23:26:24.155Z,4.78
2023-01-08T23:28:51.560Z,4.05
2023-01-08T23:31:19.761Z,4.07
2023-01-08T23:33:46.299Z,4.38
2023-01-08T23:36:18.206Z,4.80
2023-01-08T23:38:46.142Z,4.85
2023-01-08T23:41:12.679Z,4.30
2023-01-08T23:43:39.144Z,4.43
2023-01-08T23:46:05.820Z,5.00
2023-01-08T23:48:32.542Z,4.70
2023-01-08T23:50:59.151Z,5.57
2023-01-08T23:53:25.915Z,4.70
2023-01-08T23:55:52.395Z,5.18
2023-01-08T23:58:18.800Z,3.78
